createdAt,value
2018-05-06T00:01:13.909Z,102332.72
2018-05-06T00:06:05.046Z,102335.91
2018-05-06T00:10:56.072Z,102342.10
2018-05-06T00:15:47.148Z,102331.59
2018-05-06T00:20:38.921Z,102330.28
2018-05-06T00:25:30.016Z,102321.75
2018-05-06T00:30:21.788Z,102322.21
2018-05-06T00:35:12.820Z,102329.75
2018-05-06T00:40:03.885Z,102330.70
2018-05-06T00:44:55.676Z,102331.67
2018-05-06T00:49:46.713Z,102333.24
2018-05-06T00:54:42.772Z,102332.20
2018-05-06T00:59:33.821Z,102332.20
2018-05-06T01:04:25.600Z,102331.30
2018-05-06T01:09:16.623Z,102337.34
2018-05-06T01:14:07.639Z,102331.54
2018-05-06T01:18:58.730Z,102342.50
2018-05-06T01:23:50.538Z,102337.17
2018-05-06T01:28:41.597Z,102346.36
2018-05-06T01:33:32.761Z,102348.14
2018-05-06T01:38:23.829Z,102349.28
2018-05-06T01:43:14.907Z,102347.73
2018-05-06T01:48:05.962Z,102345.22
2018-05-06T01:52:57.036Z,102339.28
2018-05-06T01:57:48.067Z,102344.08
2018-05-06T02:02:39.194Z,102340.66
2018-05-06T02:07:30.216Z,102343.89
2018-05-06T02:12:21.242Z,102344.38
2018-05-06T02:17:12.283Z,102352.41
2018-05-06T02:22:03.314Z,102351.47
2018-05-06T02:26:54.370Z,102348.84
2018-05-06T02:31:46.147Z,102350.42
2018-05-06T02:36:37.185Z,102352.27
2018-05-06T02:41:28.223Z,102348.82
2018-05-06T02:46:19.236Z,102343.11
2018-05-06T02:51:10.270Z,102336.29
2018-05-06T02:56:01.321Z,102334.42
2018-05-06T03:00:52.403Z,102337.63
2018-05-06T03:05:43.411Z,102334.59
2018-05-06T03:10:34.489Z,102334.08
2018-05-06T03:15:25.487Z,102333.77
2018-05-06T03:20:16.513Z,102332.41
2018-05-06T03:25:07.566Z,102333.72
2018-05-06T03:29:59.378Z,102337.34
2018-05-06T03:34:50.405Z,102338.02
2018-05-06T03:39:41.454Z,102337.91
2018-05-06T03:44:33.265Z,102335.50
2018-05-06T03:49:24.361Z,102334.74
2018-05-06T03:54:15.382Z,102341.41
2018-05-06T03:59:25.212Z,102338.89
2018-05-06T04:04:16.986Z,102337.00
2018-05-06T04:09:08.007Z,102340.61
2018-05-06T04:13:59.045Z,102339.55
2018-05-06T04:18:50.067Z,102349.96
2018-05-06T04:23:41.079Z,102350.67
2018-05-06T04:28:32.113Z,102355.05
2018-05-06T04:33:24.692Z,102359.19
2018-05-06T04:38:15.703Z,102355.91
2018-05-06T04:43:06.730Z,102362.36
2018-05-06T04:47:57.744Z,102352.94
2018-05-06T04:52:48.777Z,102358.26
2018-05-06T04:57:39.847Z,102360.34
2018-05-06T05:02:31.605Z,102362.13
2018-05-06T05:07:22.664Z,102369.52
2018-05-06T05:12:13.685Z,102370.28
2018-05-06T05:17:04.777Z,102360.01
2018-05-06T05:21:55.840Z,102366.14
2018-05-06T05:26:46.849Z,102371.17
2018-05-06T05:31:37.879Z,102370.36
2018-05-06T05:36:28.892Z,102380.14
2018-05-06T05:41:19.911Z,102386.39
2018-05-06T05:46:10.970Z,102385.68
2018-05-06T05:51:02.010Z,102378.38
2018-05-06T05:55:53.780Z,102380.89
2018-05-06T06:00:44.885Z,102378.09
2018-05-06T06:05:36.661Z,102386.31
2018-05-06T06:10:27.681Z,102383.42
2018-05-06T06:15:18.730Z,102392.59
2018-05-06T06:20:09.756Z,102391.66
2018-05-06T06:25:00.944Z,102395.71
2018-05-06T06:29:51.967Z,102396.44
2018-05-06T06:34:42.994Z,102405.70
2018-05-06T06:39:34.066Z,102404.13
2018-05-06T06:44:25.111Z,102411.69
2018-05-06T06:49:16.893Z,102410.97
2018-05-06T06:54:07.927Z,102411.11
2018-05-06T06:58:58.939Z,102407.77
2018-05-06T07:03:50.010Z,102400.38
2018-05-06T07:08:41.784Z,102396.08
2018-05-06T07:13:32.810Z,102406.69
2018-05-06T07:18:23.815Z,102405.98
2018-05-06T07:23:14.903Z,102409.16
2018-05-06T07:28:05.978Z,102408.20
2018-05-06T07:32:57.046Z,102401.39
2018-05-06T07:37:48.065Z,102399.92
2018-05-06T07:42:39.102Z,102399.14
2018-05-06T07:47:30.149Z,102408.50
2018-05-06T07:52:21.222Z,102405.91
2018-05-06T07:57:12.285Z,102410.19
2018-05-06T08:02:04.103Z,102417.82
2018-05-06T08:06:55.103Z,102416.76
2018-05-06T08:11:46.230Z,102418.72
2018-05-06T08:16:37.309Z,102418.27
2018-05-06T08:21:28.392Z,102421.48
2018-05-06T08:26:19.415Z,102416.33
2018-05-06T08:31:10.580Z,102429.04
2018-05-06T08:36:01.616Z,102425.07
2018-05-06T08:40:54.013Z,102420.00
2018-05-06T08:45:45.126Z,102427.83
2018-05-06T08:50:36.111Z,102423.88
2018-05-06T08:55:27.123Z,102419.69
2018-05-06T09:00:18.892Z,102419.33
2018-05-06T09:05:09.948Z,102422.92
2018-05-06T09:10:01.098Z,102418.38
2018-05-06T09:14:52.115Z,102408.30
2018-05-06T09:19:43.218Z,102403.96
2018-05-06T09:24:34.939Z,102407.58
2018-05-06T09:29:25.936Z,102399.95
2018-05-06T09:34:17.009Z,102401.48
2018-05-06T09:39:08.129Z,102403.14
2018-05-06T09:43:59.204Z,102405.08
2018-05-06T09:48:50.275Z,102387.14
2018-05-06T09:53:41.357Z,102381.38
2018-05-06T09:58:32.466Z,102378.39
2018-05-06T10:03:24.366Z,102372.63
2018-05-06T10:08:15.502Z,102378.05
2018-05-06T10:13:06.513Z,102365.48
2018-05-06T10:17:57.537Z,102363.80
2018-05-06T10:22:48.553Z,102350.36
2018-05-06T10:27:39.609Z,102349.74
2018-05-06T10:32:31.359Z,102346.59
2018-05-06T10:37:23.106Z,102345.80
2018-05-06T10:42:14.916Z,102338.87
2018-05-06T10:47:05.909Z,102336.95
2018-05-06T10:51:56.929Z,102332.03
2018-05-06T10:56:47.994Z,102326.84
2018-05-06T11:01:39.030Z,102335.11
2018-05-06T11:06:30.806Z,102318.77
2018-05-06T11:11:21.920Z,102323.17
2018-05-06T11:16:12.967Z,102318.24
2018-05-06T11:21:03.975Z,102320.28
2018-05-06T11:25:55.007Z,102312.80
2018-05-06T11:30:46.023Z,102316.06
2018-05-06T11:35:37.080Z,102312.95
2018-05-06T11:40:28.108Z,102304.70
2018-05-06T11:45:19.161Z,102307.14
2018-05-06T11:50:10.983Z,102302.14
2018-05-06T11:55:02.015Z,102291.59
2018-05-06T11:59:53.773Z,102292.20
2018-05-06T12:04:45.553Z,102288.66
2018-05-06T12:09:36.661Z,102287.33
2018-05-06T12:14:27.698Z,102278.28
2018-05-06T12:19:18.727Z,102266.77
2018-05-06T12:24:09.789Z,102262.77
2018-05-06T12:29:00.817Z,102259.50
2018-05-06T12:33:52.572Z,102251.64
2018-05-06T12:38:44.363Z,102248.58
2018-05-06T12:43:35.389Z,102238.02
2018-05-06T12:48:26.785Z,102236.52
2018-05-06T12:53:17.812Z,102227.55
2018-05-06T12:58:08.845Z,102226.72
2018-05-06T13:02:59.895Z,102224.77
2018-05-06T13:07:50.926Z,102216.02
2018-05-06T13:12:41.943Z,102206.85
2018-05-06T13:17:32.960Z,102213.34
2018-05-06T13:22:24.008Z,102210.05
2018-05-06T13:27:15.813Z,102200.05
2018-05-06T13:32:06.865Z,102183.95
2018-05-06T13:36:57.900Z,102194.69
2018-05-06T13:41:49.650Z,102179.55
2018-05-06T13:46:41.480Z,102179.58
2018-05-06T13:51:33.263Z,102175.40
2018-05-06T13:56:24.405Z,102173.02
2018-05-06T14:01:15.429Z,102181.89
2018-05-06T14:06:06.489Z,102173.04
2018-05-06T14:10:58.251Z,102168.54
2018-05-06T14:15:49.335Z,102174.23
2018-05-06T14:20:40.442Z,102164.95
2018-05-06T14:25:31.553Z,102153.25
2018-05-06T14:30:22.584Z,102151.25
2018-05-06T14:35:13.596Z,102145.52
2018-05-06T14:40:04.627Z,102141.53
2018-05-06T14:44:55.648Z,102133.86
2018-05-06T14:49:46.652Z,102124.48
2018-05-06T14:54:37.664Z,102125.45
2018-05-06T14:59:28.700Z,102128.40
2018-05-06T15:04:19.757Z,102114.34
2018-05-06T15:09:10.781Z,102114.91
2018-05-06T15:14:01.812Z,102120.91
2018-05-06T15:18:52.909Z,102112.95
2018-05-06T15:23:43.949Z,102110.63
2018-05-06T15:28:35.002Z,102110.12
2018-05-06T15:33:26.751Z,102109.30
2018-05-06T15:38:18.504Z,102105.13
2018-05-06T15:43:09.522Z,102097.14
2018-05-06T15:48:00.549Z,102101.39
2018-05-06T15:52:51.603Z,102103.52
2018-05-06T15:57:42.645Z,102101.34
2018-05-06T16:08:03.076Z,102088.56
2018-05-06T16:12:54.097Z,102085.04
2018-05-06T16:17:45.207Z,102079.62
2018-05-06T16:22:36.262Z,102070.98
2018-05-06T16:27:27.330Z,102066.73
2018-05-06T16:32:19.099Z,102070.87
2018-05-06T16:37:10.099Z,102070.47
2018-05-06T16:42:01.141Z,102071.99
2018-05-06T16:46:52.197Z,102076.16
2018-05-06T16:51:43.223Z,102073.26
2018-05-06T16:56:34.321Z,102076.12
2018-05-06T17:01:25.366Z,102071.16
2018-05-06T17:06:16.402Z,102075.13
2018-05-06T17:11:07.464Z,102072.42
2018-05-06T17:15:58.508Z,102062.92
2018-05-06T17:20:49.536Z,102072.44
2018-05-06T17:25:40.555Z,102073.87
2018-05-06T17:30:31.569Z,102066.86
2018-05-06T17:35:22.600Z,102074.70
2018-05-06T17:40:13.619Z,102079.85
2018-05-06T17:45:04.754Z,102075.00
2018-05-06T17:49:55.858Z,102076.02
2018-05-06T17:54:46.967Z,102075.94
2018-05-06T17:59:38.759Z,102079.88
2018-05-06T18:04:30.533Z,102077.09
2018-05-06T18:09:22.953Z,102084.63
2018-05-06T18:14:14.007Z,102091.55
2018-05-06T18:19:05.861Z,102095.18
2018-05-06T18:23:57.690Z,102091.80
2018-05-06T18:28:49.497Z,102081.97
2018-05-06T18:33:40.552Z,102085.89
2018-05-06T18:38:31.629Z,102085.55
2018-05-06T18:43:22.665Z,102087.23
2018-05-06T18:48:13.746Z,102091.65
2018-05-06T18:53:05.525Z,102092.67
2018-05-06T18:57:56.559Z,102101.50
2018-05-06T19:02:47.724Z,102097.81
2018-05-06T19:07:38.731Z,102097.69
2018-05-06T19:12:29.916Z,102100.00
2018-05-06T19:17:20.993Z,102101.11
2018-05-06T19:22:12.774Z,102095.73
2018-05-06T19:27:03.781Z,102103.70
2018-05-06T19:31:54.842Z,102104.63
2018-05-06T19:36:45.865Z,102105.69
2018-05-06T19:41:36.889Z,102110.28
2018-05-06T19:46:27.932Z,102112.05
2018-05-06T19:51:18.954Z,102111.95
2018-05-06T19:56:09.995Z,102111.19
2018-05-06T20:01:01.775Z,102114.79
2018-05-06T20:05:52.816Z,102110.59
2018-05-06T20:10:43.831Z,102108.34
2018-05-06T20:15:34.941Z,102101.01
2018-05-06T20:20:26.059Z,102100.99
2018-05-06T20:25:17.081Z,102097.77
2018-05-06T20:30:08.134Z,102105.61
2018-05-06T20:34:59.161Z,102105.22
2018-05-06T20:39:50.186Z,102106.02
2018-05-06T20:44:41.209Z,102101.95
2018-05-06T20:49:32.319Z,102099.22
2018-05-06T20:54:23.369Z,102096.80
2018-05-06T20:59:14.417Z,102097.30
2018-05-06T21:04:05.474Z,102095.20
2018-05-06T21:08:56.518Z,102094.39
2018-05-06T21:13:47.566Z,102099.45
2018-05-06T21:18:38.604Z,102100.78
2018-05-06T21:23:30.455Z,102099.73
2018-05-06T21:28:22.260Z,102096.91
2018-05-06T21:33:13.295Z,102095.67
2018-05-06T21:38:04.442Z,102098.86
2018-05-06T21:42:56.206Z,102097.77
2018-05-06T21:47:47.282Z,102097.89
2018-05-06T21:52:38.343Z,102106.18
2018-05-06T21:57:29.411Z,102100.95
2018-05-06T22:02:20.447Z,102097.31
2018-05-06T22:07:11.477Z,102091.91
2018-05-06T22:12:02.525Z,102088.79
2018-05-06T22:16:54.318Z,102091.61
2018-05-06T22:21:45.356Z,102090.80
2018-05-06T22:26:36.381Z,102089.06
2018-05-06T22:31:27.460Z,102099.61
2018-05-06T22:36:18.481Z,102099.14
2018-05-06T22:41:09.604Z,102098.33
2018-05-06T22:46:00.731Z,102094.64
2018-05-06T22:50:51.763Z,102105.35
2018-05-06T22:55:42.816Z,102110.38
2018-05-06T23:00:33.881Z,102101.86
2018-05-06T23:05:24.926Z,102103.09
2018-05-06T23:10:15.958Z,102096.53
2018-05-06T23:15:06.970Z,102096.53
2018-05-06T23:19:58.033Z,102090.20
2018-05-06T23:24:49.096Z,102085.20
2018-05-06T23:29:40.851Z,102094.98
2018-05-06T23:34:31.871Z,102089.66
2018-05-06T23:39:22.990Z,102090.98
2018-05-06T23:44:14.797Z,102097.32
2018-05-06T23:49:05.842Z,102097.80
2018-05-06T23:53:57.646Z,102094.66
2018-05-06T23:58:48.691Z,102099.22
